This is the latest recevied weather packets stored in our database for station/object NG6B-2. If no packets are shown the sender has not sent any weather packets the latest 10 day(s).
| Time | Temp. | Humidity | Pressure | Rain* | Wind** | Luminosity | Snow |
|---|---|---|---|---|---|---|---|
| 1777559458 | 18.33° C | 22% | 1006.1 hPa | 0 mm | - | - | - |
| 1777557657 | 17.22° C | 26% | 1005.8 hPa | 0 mm | - | - | - |
| 1777555856 | 16.67° C | 24% | 1005.6 hPa | 0 mm | - | - | - |
| 1777554055 | 16.67° C | 24% | 1005.4 hPa | 0 mm | - | - | - |
| 1777552254 | 15.56° C | 26% | 1005.4 hPa | 0 mm | - | - | - |
| 1777550453 | 15.56° C | 26% | 1005.1 hPa | 0 mm | - | - | - |
| 1777548652 | 15.56° C | 25% | 1005.2 hPa | 0 mm | - | - | - |
| 1777546851 | 16.11° C | 24% | 1005.7 hPa | 0 mm | - | - | - |
| 1777545050 | 16.11° C | 25% | 1006.1 hPa | 0 mm | - | - | - |
| 1777543249 | 15° C | 26% | 1006.2 hPa | 0 mm | - | - | - |
| 1777541448 | 15° C | 26% | 1006.4 hPa | 0 mm | - | - | - |
| 1777539647 | 15° C | 26% | 1006.5 hPa | 0 mm | - | - | - |
| 1777537846 | 15.56° C | 26% | 1006.7 hPa | 0 mm | - | - | - |
| 1777536045 | 16.11° C | 25% | 1007.3 hPa | 0 mm | - | - | - |
| 1777534244 | 16.67° C | 23% | 1007.6 hPa | 0 mm | - | - | - |
| 1777532443 | 17.22° C | 21% | 1007.5 hPa | 0 mm | - | - | - |
| 1777530642 | 18.33° C | 20% | 1007.5 hPa | 0 mm | - | - | - |
| 1777528841 | 18.89° C | 18% | 1007.9 hPa | 0 mm | - | - | - |
| 1777527040 | 20° C | 17% | 1008 hPa | 0 mm | - | - | - |
| 1777525239 | 21.11° C | 16% | 1008 hPa | 0 mm | - | - | - |
| 1777523438 | 21.11° C | 15% | 1008.3 hPa | 0 mm | - | - | - |
| 1777521637 | 20.56° C | 14% | 1007.8 hPa | 0 mm | - | - | - |
| 1777519836 | 21.11° C | 13% | 1007.7 hPa | 0 mm | - | - | - |
| 1777518035 | 21.67° C | 14% | 1007 hPa | 0 mm | - | - | - |
| 1777516234 | 22.78° C | 12% | 1006.7 hPa | 0 mm | - | - | - |
* Rain latest hour (hover to see other rain measurements)
** Current wind speed in m/s (hover to see current wind gust speed)